createdAt,value
2023-04-13T00:00:13.364Z,9.88
2023-04-13T00:02:40.159Z,7.90
2023-04-13T00:05:10.093Z,6.57
2023-04-13T00:07:38.605Z,4.75
2023-04-13T00:10:08.757Z,5.78
2023-04-13T00:15:05.899Z,8.07
2023-04-13T00:17:33.589Z,5.72
2023-04-13T00:20:00.453Z,6.57
2023-04-13T00:22:30.391Z,6.97
2023-04-13T00:24:57.801Z,9.40
2023-04-13T00:27:27.387Z,8.27
2023-04-13T00:29:57.658Z,6.80
2023-04-13T00:34:53.210Z,8.15
2023-04-13T00:37:20.157Z,10.43
2023-04-13T00:39:46.935Z,5.47
2023-04-13T00:42:14.031Z,7.47
2023-04-13T00:44:40.650Z,5.93
2023-04-13T00:47:07.961Z,8.05
2023-04-13T00:49:35.562Z,9.07
2023-04-13T00:52:03.141Z,9.88
2023-04-13T00:54:30.423Z,8.00
2023-04-13T00:56:58.897Z,7.50
2023-04-13T00:59:27.775Z,7.72
2023-04-13T01:01:57.621Z,9.20
2023-04-13T01:04:25.770Z,7.85
2023-04-13T01:07:03.243Z,9.20
2023-04-13T01:09:44.357Z,8.68
2023-04-13T01:12:36.729Z,9.65
2023-04-13T01:15:11.393Z,6.70
2023-04-13T01:17:40.130Z,11.73
2023-04-13T01:20:10.644Z,10.18
2023-04-13T01:22:39.767Z,9.77
2023-04-13T01:25:32.602Z,10.93
2023-04-13T01:28:07.516Z,9.45
2023-04-13T01:30:35.854Z,12.98
2023-04-13T01:33:04.447Z,9.20
2023-04-13T01:35:31.952Z,10.57
2023-04-13T01:37:59.232Z,10.65
2023-04-13T01:40:29.148Z,9.07
2023-04-13T01:42:56.565Z,9.35
2023-04-13T01:45:27.377Z,10.85
2023-04-13T01:48:06.353Z,13.50
2023-04-13T01:50:45.751Z,13.15
2023-04-13T01:53:17.723Z,15.27
2023-04-13T01:55:45.395Z,11.35
2023-04-13T01:58:14.269Z,12.13
2023-04-13T02:00:42.269Z,11.90
2023-04-13T02:03:10.998Z,12.30
2023-04-13T02:05:38.824Z,15.85
2023-04-13T02:08:06.334Z,12.80
2023-04-13T02:10:34.882Z,12.45
2023-04-13T02:13:01.985Z,14.70
2023-04-13T02:15:28.613Z,13.40
2023-04-13T02:17:55.387Z,14.60
2023-04-13T02:20:22.219Z,16.83
2023-04-13T02:22:48.916Z,14.55
2023-04-13T02:25:15.706Z,13.32
2023-04-13T02:27:42.947Z,13.98
2023-04-13T02:30:10.205Z,15.40
2023-04-13T02:32:39.634Z,15.27
2023-04-13T02:35:10.952Z,16.25
2023-04-13T02:37:40.141Z,15.18
2023-04-13T02:40:10.643Z,19.73
2023-04-13T02:42:41.279Z,17.92
2023-04-13T02:45:12.247Z,16.52
2023-04-13T02:47:40.279Z,19.77
2023-04-13T02:50:07.759Z,17.25
2023-04-13T02:52:34.339Z,16.23
2023-04-13T02:55:01.613Z,18.08
2023-04-13T02:57:28.372Z,17.55
2023-04-13T02:59:54.961Z,15.40
2023-04-13T03:02:21.826Z,15.80
2023-04-13T03:04:48.884Z,15.43
2023-04-13T03:07:17.257Z,19.55
2023-04-13T03:09:44.777Z,20.50
2023-04-13T03:12:11.483Z,17.17
2023-04-13T03:14:38.208Z,15.45
2023-04-13T03:17:05.236Z,20.02
2023-04-13T03:19:32.750Z,18.67
2023-04-13T03:21:59.394Z,20.85
2023-04-13T03:24:29.111Z,16.58
2023-04-13T03:26:57.063Z,17.20
2023-04-13T03:29:24.476Z,15.30
2023-04-13T03:31:51.569Z,15.20
2023-04-13T03:34:19.021Z,15.93
2023-04-13T03:36:45.890Z,15.68
2023-04-13T03:39:12.985Z,14.57
2023-04-13T03:41:39.710Z,19.83
2023-04-13T03:44:07.872Z,14.02
2023-04-13T03:46:37.561Z,18.17
2023-04-13T03:49:09.790Z,15.25
2023-04-13T03:51:39.566Z,15.93
2023-04-13T03:54:06.302Z,16.35
2023-04-13T03:56:33.577Z,15.25
2023-04-13T03:59:00.263Z,14.40
2023-04-13T04:01:27.294Z,17.88
2023-04-13T04:03:57.317Z,16.10
2023-04-13T04:06:24.493Z,14.75
2023-04-13T04:08:51.417Z,17.58
2023-04-13T04:11:18.086Z,14.13
2023-04-13T04:13:44.974Z,13.27
2023-04-13T04:16:11.890Z,14.10
2023-04-13T04:18:39.297Z,17.20
2023-04-13T04:21:06.967Z,15.13
2023-04-13T04:23:34.872Z,12.70
2023-04-13T04:26:03.020Z,12.77
2023-04-13T04:28:30.610Z,14.60
2023-04-13T04:31:01.028Z,12.20
2023-04-13T04:33:28.008Z,14.63
2023-04-13T04:35:54.645Z,12.05
2023-04-13T04:38:25.053Z,13.27
2023-04-13T04:40:57.572Z,10.77
2023-04-13T04:43:27.208Z,13.13
2023-04-13T04:45:57.607Z,12.70
2023-04-13T04:48:27.073Z,10.98
2023-04-13T04:50:56.226Z,14.82
2023-04-13T04:53:23.526Z,14.27
2023-04-13T04:55:50.545Z,13.02
2023-04-13T04:58:19.568Z,13.90
2023-04-13T05:00:47.947Z,11.32
2023-04-13T05:03:14.890Z,12.18
2023-04-13T05:05:43.157Z,11.85
2023-04-13T05:08:11.648Z,13.80
2023-04-13T05:10:45.474Z,13.32
2023-04-13T05:13:12.954Z,13.52
2023-04-13T05:15:39.635Z,14.02
2023-04-13T05:18:06.434Z,16.70
2023-04-13T05:20:34.791Z,10.27
2023-04-13T05:23:01.770Z,15.38
2023-04-13T05:25:28.966Z,14.60
2023-04-13T05:27:56.210Z,13.88
2023-04-13T05:30:23.159Z,10.77
2023-04-13T05:32:49.792Z,13.05
2023-04-13T05:35:16.439Z,11.10
2023-04-13T05:37:44.596Z,18.52
2023-04-13T05:40:14.446Z,13.82
2023-04-13T05:42:42.965Z,12.95
2023-04-13T05:45:10.613Z,11.63
2023-04-13T05:47:38.868Z,13.80
2023-04-13T05:50:06.572Z,14.60
2023-04-13T05:52:33.219Z,13.80
2023-04-13T05:54:59.827Z,13.35
2023-04-13T05:57:27.719Z,14.57
2023-04-13T05:59:54.953Z,12.70
2023-04-13T06:02:22.789Z,12.50
2023-04-13T06:04:52.512Z,13.13
2023-04-13T06:07:19.997Z,13.13
2023-04-13T06:09:46.599Z,15.50
2023-04-13T06:12:13.655Z,15.40
2023-04-13T06:14:41.740Z,13.15
2023-04-13T06:17:08.581Z,15.65
2023-04-13T06:19:35.490Z,12.35
2023-04-13T06:22:02.214Z,12.25
2023-04-13T06:24:28.874Z,10.40
2023-04-13T06:26:55.615Z,13.85
2023-04-13T06:29:23.667Z,11.68
2023-04-13T06:31:50.638Z,13.05
2023-04-13T06:34:17.925Z,13.02
2023-04-13T06:36:44.636Z,9.43
2023-04-13T06:39:11.650Z,12.52
2023-04-13T06:41:38.315Z,10.15
2023-04-13T06:44:05.261Z,10.13
2023-04-13T06:46:32.016Z,11.02
2023-04-13T06:48:58.941Z,13.38
2023-04-13T06:51:27.073Z,10.43
2023-04-13T06:53:54.699Z,10.43
2023-04-13T06:56:21.501Z,11.77
2023-04-13T06:58:48.242Z,8.95
2023-04-13T07:01:16.149Z,11.63
2023-04-13T07:03:44.034Z,8.43
2023-04-13T07:06:11.625Z,9.15
2023-04-13T07:08:38.255Z,9.10
2023-04-13T07:11:05.111Z,11.07
2023-04-13T07:13:31.727Z,10.45
2023-04-13T07:15:58.410Z,9.50
2023-04-13T07:18:25.517Z,6.90
2023-04-13T07:20:53.060Z,7.55
2023-04-13T07:23:19.769Z,7.63
2023-04-13T07:25:46.455Z,12.40
2023-04-13T07:28:13.132Z,8.65
2023-04-13T07:30:44.061Z,9.85
2023-04-13T07:33:11.153Z,7.78
2023-04-13T07:35:38.405Z,6.85
2023-04-13T07:38:06.210Z,6.68
2023-04-13T07:40:32.966Z,8.10
2023-04-13T07:42:59.592Z,5.15
2023-04-13T07:45:29.150Z,5.03
2023-04-13T07:47:55.867Z,6.88
2023-04-13T07:50:23.079Z,7.63
2023-04-13T07:52:49.837Z,10.15
2023-04-13T07:55:16.786Z,7.10
2023-04-13T07:57:43.697Z,7.07
2023-04-13T08:00:12.268Z,4.82
2023-04-13T08:02:39.199Z,10.20
2023-04-13T08:05:07.004Z,8.52
2023-04-13T08:07:33.939Z,7.13
2023-04-13T08:10:02.001Z,7.45
2023-04-13T08:12:28.705Z,7.78
2023-04-13T08:14:55.319Z,6.47
2023-04-13T08:17:21.975Z,5.25
2023-04-13T08:19:48.785Z,4.10
2023-04-13T08:22:15.424Z,4.35
2023-04-13T08:24:42.149Z,4.90
2023-04-13T08:27:08.835Z,4.55
2023-04-13T08:29:35.484Z,6.13
2023-04-13T08:32:02.369Z,3.28
2023-04-13T08:34:29.187Z,4.95
2023-04-13T08:36:55.877Z,5.25
2023-04-13T08:39:22.870Z,6.20
2023-04-13T08:41:49.663Z,4.90
2023-04-13T08:44:17.604Z,3.33
2023-04-13T08:46:46.011Z,2.38
2023-04-13T08:49:13.573Z,5.53
2023-04-13T08:51:43.475Z,2.22
2023-04-13T08:54:12.799Z,3.55
2023-04-13T08:56:45.876Z,4.53
2023-04-13T08:59:16.047Z,3.25
2023-04-13T09:01:45.393Z,6.03
2023-04-13T09:04:14.126Z,4.70
2023-04-13T09:06:43.055Z,2.83
2023-04-13T09:09:13.484Z,4.93
2023-04-13T09:11:42.091Z,2.78
2023-04-13T09:14:10.170Z,3.63
2023-04-13T09:16:44.107Z,3.60
2023-04-13T09:19:12.896Z,3.15
2023-04-13T09:21:41.189Z,3.97
2023-04-13T09:24:08.610Z,4.10
2023-04-13T09:26:46.671Z,5.10
2023-04-13T09:29:16.441Z,3.67
2023-04-13T09:31:45.544Z,3.33
2023-04-13T09:34:12.773Z,4.30
2023-04-13T09:36:52.987Z,3.80
2023-04-13T09:39:28.856Z,4.78
2023-04-13T09:41:56.058Z,3.10
2023-04-13T09:44:31.009Z,3.30
2023-04-13T09:46:59.323Z,2.55
2023-04-13T09:49:26.886Z,1.55
2023-04-13T09:51:54.762Z,2.75
2023-04-13T09:54:22.090Z,1.88
2023-04-13T09:56:54.672Z,3.75
2023-04-13T09:59:25.596Z,3.13
2023-04-13T10:01:54.118Z,4.63
2023-04-13T10:04:21.105Z,3.00
2023-04-13T10:06:48.326Z,2.25
2023-04-13T10:09:15.743Z,3.70
2023-04-13T10:11:45.983Z,2.85
2023-04-13T10:17:15.830Z,4.25
2023-04-13T10:19:49.523Z,3.08
2023-04-13T10:22:17.610Z,2.45
2023-04-13T10:24:44.704Z,2.08
2023-04-13T10:27:22.537Z,3.13
2023-04-13T10:29:49.924Z,2.67
2023-04-13T10:32:25.663Z,2.40
2023-04-13T10:34:53.393Z,2.72
2023-04-13T10:37:23.266Z,2.38
2023-04-13T10:40:01.890Z,2.53
2023-04-13T10:42:51.140Z,1.83
2023-04-13T10:47:47.496Z,2.15
2023-04-13T10:50:25.196Z,5.45
2023-04-13T10:52:59.170Z,4.00
2023-04-13T10:55:27.298Z,2.67
2023-04-13T10:57:56.371Z,5.43
2023-04-13T11:00:42.428Z,3.97
2023-04-13T11:03:15.367Z,5.22
2023-04-13T11:05:43.421Z,1.70
2023-04-13T11:08:16.081Z,2.60
2023-04-13T11:10:42.787Z,3.22
2023-04-13T11:13:09.417Z,2.33
2023-04-13T11:15:36.353Z,1.52
2023-04-13T11:18:03.777Z,3.13
2023-04-13T11:20:42.047Z,1.48
2023-04-13T11:23:15.679Z,3.05
2023-04-13T11:26:02.766Z,3.63
2023-04-13T11:28:41.126Z,2.47
2023-04-13T11:31:08.557Z,2.95
2023-04-13T11:33:38.660Z,4.40
2023-04-13T11:36:07.843Z,2.10
2023-04-13T11:38:34.543Z,3.78
2023-04-13T11:41:15.945Z,3.97
2023-04-13T11:43:46.154Z,3.05
2023-04-13T11:46:15.361Z,3.22
2023-04-13T11:48:43.721Z,1.80
2023-04-13T11:51:11.337Z,4.55
2023-04-13T11:53:39.520Z,3.35
2023-04-13T11:56:07.358Z,5.90
2023-04-13T11:58:34.515Z,2.33
2023-04-13T12:01:14.010Z,5.05
2023-04-13T12:03:59.051Z,3.80
2023-04-13T12:06:33.003Z,2.45
2023-04-13T12:09:10.893Z,3.92
2023-04-13T12:11:46.352Z,5.00
2023-04-13T12:14:47.713Z,2.25
2023-04-13T12:17:34.832Z,2.28
2023-04-13T12:20:00.654Z,3.83
2023-04-13T12:22:54.941Z,2.35
2023-04-13T12:25:25.168Z,5.85
2023-04-13T12:27:53.601Z,3.28
2023-04-13T12:30:21.782Z,1.98
2023-04-13T12:32:53.351Z,2.60
2023-04-13T12:35:20.544Z,2.90
2023-04-13T12:37:48.432Z,1.55
2023-04-13T12:40:16.253Z,1.75
2023-04-13T12:42:43.801Z,2.47
2023-04-13T12:45:10.777Z,3.65
2023-04-13T12:47:37.924Z,1.95
2023-04-13T12:50:09.321Z,2.50
2023-04-13T12:52:39.207Z,1.90
2023-04-13T12:55:06.773Z,4.03
2023-04-13T12:57:33.486Z,4.43
2023-04-13T13:00:00.693Z,4.50
2023-04-13T13:02:30.995Z,1.67
2023-04-13T13:04:59.046Z,3.30
2023-04-13T13:07:26.262Z,0.85
2023-04-13T13:09:53.000Z,5.50
2023-04-13T13:12:19.622Z,3.38
2023-04-13T13:14:46.410Z,6.18
2023-04-13T13:17:13.063Z,2.40
2023-04-13T13:19:39.663Z,2.85
2023-04-13T13:22:06.425Z,4.35
2023-04-13T13:24:33.242Z,2.38
2023-04-13T13:29:33.162Z,4.05
2023-04-13T13:32:00.681Z,1.83
2023-04-13T13:34:27.462Z,4.32
2023-04-13T13:36:54.117Z,2.40
2023-04-13T13:39:22.321Z,3.22
2023-04-13T13:41:49.659Z,3.67
2023-04-13T13:44:16.851Z,2.13
2023-04-13T13:46:43.828Z,1.00
2023-04-13T13:49:11.792Z,1.75
2023-04-13T13:51:38.479Z,1.80
2023-04-13T13:54:05.228Z,2.08
2023-04-13T13:56:32.058Z,5.45
2023-04-13T13:58:59.111Z,3.33
2023-04-13T14:01:26.008Z,3.53
2023-04-13T14:03:53.211Z,2.60
2023-04-13T14:06:20.419Z,2.58
2023-04-13T14:08:47.147Z,3.05
2023-04-13T14:11:13.873Z,2.45
2023-04-13T14:13:40.579Z,0.82
2023-04-13T14:16:07.734Z,2.67
2023-04-13T14:18:34.612Z,4.43
2023-04-13T14:21:01.395Z,1.98
2023-04-13T14:23:28.280Z,1.50
2023-04-13T14:25:55.106Z,2.83
2023-04-13T14:28:21.835Z,1.30
2023-04-13T14:30:48.506Z,2.03
2023-04-13T14:33:16.191Z,3.10
2023-04-13T14:35:43.180Z,3.42
2023-04-13T14:38:09.857Z,2.50
2023-04-13T14:40:36.522Z,2.38
2023-04-13T14:43:03.568Z,1.65
2023-04-13T14:45:30.294Z,1.10
2023-04-13T14:47:57.125Z,2.58
2023-04-13T14:50:24.261Z,3.53
2023-04-13T14:52:50.988Z,1.75
2023-04-13T14:55:17.875Z,1.90
2023-04-13T14:57:48.036Z,5.25
2023-04-13T15:02:45.044Z,1.92
2023-04-13T15:05:11.894Z,2.65
2023-04-13T15:07:38.580Z,2.10
2023-04-13T15:10:08.396Z,3.00
2023-04-13T15:12:35.203Z,2.03
2023-04-13T15:15:01.853Z,4.18
2023-04-13T15:17:29.607Z,1.77
2023-04-13T15:19:56.387Z,1.88
2023-04-13T15:22:23.105Z,1.65
2023-04-13T15:24:49.896Z,1.95
2023-04-13T15:27:16.598Z,2.63
2023-04-13T15:29:43.303Z,2.15
2023-04-13T15:32:10.052Z,2.53
2023-04-13T15:34:36.864Z,2.53
2023-04-13T15:37:03.539Z,2.88
2023-04-13T15:39:30.349Z,1.52
2023-04-13T15:41:57.804Z,1.60
2023-04-13T15:44:24.848Z,2.00
2023-04-13T15:46:51.707Z,1.98
2023-04-13T15:49:18.366Z,1.63
2023-04-13T15:51:45.022Z,1.95
2023-04-13T15:54:11.816Z,3.28
2023-04-13T15:56:38.463Z,1.73
2023-04-13T15:59:05.255Z,2.10
2023-04-13T16:01:49.222Z,3.70
2023-04-13T16:04:16.353Z,13.63
2023-04-13T16:06:43.114Z,42.70
2023-04-13T16:09:10.129Z,53.30
2023-04-13T16:11:39.952Z,11.57
2023-04-13T16:14:09.828Z,6.03
2023-04-13T16:16:44.452Z,6.93
2023-04-13T16:19:12.309Z,4.90
2023-04-13T16:21:40.274Z,3.67
2023-04-13T16:24:08.549Z,2.65
2023-04-13T16:26:35.369Z,2.00
2023-04-13T16:29:03.176Z,3.75
2023-04-13T16:31:30.439Z,2.25
2023-04-13T16:33:57.481Z,3.58
2023-04-13T16:36:24.274Z,3.05
2023-04-13T16:38:51.397Z,4.93
2023-04-13T16:41:18.056Z,2.95
2023-04-13T16:43:44.801Z,3.88
2023-04-13T16:46:14.442Z,2.30
2023-04-13T16:48:41.160Z,3.83
2023-04-13T16:51:08.130Z,6.18
2023-04-13T16:53:34.902Z,3.53
2023-04-13T16:56:01.639Z,2.35
2023-04-13T16:58:28.285Z,2.03
2023-04-13T17:00:54.915Z,2.88
2023-04-13T17:03:21.894Z,2.38
2023-04-13T17:05:48.650Z,4.07
2023-04-13T17:08:17.026Z,3.60
2023-04-13T17:10:43.915Z,3.28
2023-04-13T17:13:10.705Z,2.88
2023-04-13T17:15:37.317Z,2.08
2023-04-13T17:18:04.695Z,3.90
2023-04-13T17:20:31.822Z,3.03
2023-04-13T17:22:58.421Z,5.85
2023-04-13T17:25:25.057Z,6.78
2023-04-13T17:27:53.251Z,8.50
2023-04-13T17:30:20.142Z,5.85
2023-04-13T17:32:47.231Z,9.55
2023-04-13T17:35:14.437Z,6.38
2023-04-13T17:37:41.474Z,6.32
2023-04-13T17:40:08.731Z,11.18
2023-04-13T17:42:35.501Z,18.52
2023-04-13T17:45:02.370Z,24.58
2023-04-13T17:47:29.043Z,27.65
2023-04-13T17:49:55.748Z,34.90
2023-04-13T17:52:22.724Z,34.60
2023-04-13T17:54:49.366Z,26.38
2023-04-13T17:57:16.005Z,32.70
2023-04-13T17:59:43.631Z,24.83
2023-04-13T18:02:10.369Z,35.08
2023-04-13T18:04:37.152Z,23.98
2023-04-13T18:07:03.802Z,21.60
2023-04-13T18:09:31.370Z,27.77
2023-04-13T18:11:58.005Z,21.48
2023-04-13T18:14:24.752Z,27.20
2023-04-13T18:16:51.566Z,15.85
2023-04-13T18:19:18.188Z,22.08
2023-04-13T18:21:44.796Z,15.60
2023-04-13T18:24:11.474Z,16.27
2023-04-13T18:26:38.970Z,13.10
2023-04-13T18:29:05.688Z,15.05
2023-04-13T18:31:32.412Z,13.55
2023-04-13T18:33:59.324Z,11.20
2023-04-13T18:36:26.755Z,11.25
2023-04-13T18:38:54.971Z,13.35
2023-04-13T18:41:22.205Z,9.38
2023-04-13T18:43:48.867Z,12.35
2023-04-13T18:46:16.034Z,13.40
2023-04-13T18:48:42.671Z,12.52
2023-04-13T18:51:10.559Z,14.43
2023-04-13T18:53:37.251Z,15.20
2023-04-13T18:56:03.909Z,11.95
2023-04-13T18:58:30.683Z,10.02
2023-04-13T19:00:57.313Z,8.15
2023-04-13T19:03:24.056Z,7.35
2023-04-13T19:05:50.868Z,7.63
2023-04-13T19:08:17.704Z,7.63
2023-04-13T19:10:45.153Z,6.18
2023-04-13T19:13:11.960Z,6.22
2023-04-13T19:15:39.164Z,7.18
2023-04-13T19:18:06.551Z,11.82
2023-04-13T19:20:33.270Z,5.88
2023-04-13T19:22:59.885Z,6.20
2023-04-13T19:25:26.668Z,6.63
2023-04-13T19:27:53.307Z,7.45
2023-04-13T19:30:20.054Z,7.30
2023-04-13T19:32:48.747Z,4.68
2023-04-13T19:35:16.514Z,4.72
2023-04-13T19:37:43.376Z,3.22
2023-04-13T19:40:13.508Z,7.78
2023-04-13T19:42:43.317Z,4.53
2023-04-13T19:45:10.697Z,5.60
2023-04-13T19:47:38.465Z,4.95
2023-04-13T19:50:07.396Z,3.92
2023-04-13T19:52:34.143Z,4.28
2023-04-13T19:55:01.218Z,8.57
2023-04-13T19:57:28.513Z,3.97
2023-04-13T19:59:55.198Z,2.53
2023-04-13T20:02:22.044Z,6.10
2023-04-13T20:04:52.253Z,4.72
2023-04-13T20:07:19.116Z,5.05
2023-04-13T20:09:46.444Z,3.00
2023-04-13T20:12:13.478Z,2.95
2023-04-13T20:14:42.390Z,3.80
2023-04-13T20:17:10.516Z,4.25
2023-04-13T20:19:37.264Z,8.73
2023-04-13T20:22:04.869Z,4.30
2023-04-13T20:24:31.858Z,6.88
2023-04-13T20:26:59.010Z,3.72
2023-04-13T20:29:27.434Z,3.08
2023-04-13T20:31:54.896Z,6.82
2023-04-13T20:34:22.259Z,4.20
2023-04-13T20:36:49.112Z,6.47
2023-04-13T20:39:18.558Z,3.75
2023-04-13T20:41:55.178Z,4.38
2023-04-13T20:44:25.714Z,6.55
2023-04-13T20:46:54.141Z,6.65
2023-04-13T20:49:23.181Z,5.45
2023-04-13T20:51:53.839Z,8.02
2023-04-13T20:54:21.495Z,4.82
2023-04-13T20:56:49.124Z,5.82
2023-04-13T20:59:17.027Z,3.17
2023-04-13T21:01:44.027Z,4.30
2023-04-13T21:04:11.835Z,5.65
2023-04-13T21:06:38.586Z,5.72
2023-04-13T21:09:05.665Z,8.82
2023-04-13T21:11:32.368Z,4.45
2023-04-13T21:13:59.118Z,5.88
2023-04-13T21:16:26.506Z,10.38
2023-04-13T21:18:54.058Z,5.13
2023-04-13T21:21:23.397Z,8.02
2023-04-13T21:23:53.275Z,8.57
2023-04-13T21:26:20.819Z,10.20
2023-04-13T21:28:47.544Z,9.23
2023-04-13T21:31:14.385Z,7.68
2023-04-13T21:33:41.254Z,8.38
2023-04-13T21:38:40.946Z,9.90
2023-04-13T21:41:18.565Z,11.35
2023-04-13T21:43:45.946Z,7.30
2023-04-13T21:46:14.111Z,12.65
2023-04-13T21:48:41.730Z,7.70
2023-04-13T21:51:09.135Z,10.13
2023-04-13T21:53:37.408Z,9.02
2023-04-13T21:56:05.790Z,12.20
2023-04-13T21:58:43.568Z,13.93
2023-04-13T22:01:11.883Z,8.25
2023-04-13T22:03:40.517Z,8.95
2023-04-13T22:06:09.637Z,7.78
2023-04-13T22:08:37.038Z,11.60
2023-04-13T22:11:04.148Z,12.27
2023-04-13T22:13:30.892Z,11.65
2023-04-13T22:15:57.909Z,8.75
2023-04-13T22:18:24.833Z,10.55
2023-04-13T22:20:51.550Z,11.52
2023-04-13T22:23:18.740Z,12.90
2023-04-13T22:26:01.069Z,8.50
2023-04-13T22:28:28.677Z,12.40
2023-04-13T22:30:55.377Z,13.52
2023-04-13T22:33:22.231Z,13.70
2023-04-13T22:35:51.936Z,13.23
2023-04-13T22:38:19.329Z,19.58
2023-04-13T22:40:46.060Z,18.90
2023-04-13T22:43:12.715Z,19.95
2023-04-13T22:45:39.372Z,15.50
2023-04-13T22:48:06.501Z,14.65
2023-04-13T22:50:33.274Z,18.58
2023-04-13T22:53:00.038Z,16.35
2023-04-13T22:55:26.721Z,17.58
2023-04-13T22:57:53.356Z,17.80
2023-04-13T23:00:21.119Z,16.25
2023-04-13T23:02:50.485Z,16.08
2023-04-13T23:05:17.922Z,17.38
2023-04-13T23:07:44.644Z,15.80
2023-04-13T23:10:11.254Z,20.83
2023-04-13T23:12:38.088Z,18.35
2023-04-13T23:15:05.342Z,13.52
2023-04-13T23:17:32.081Z,14.65
2023-04-13T23:19:58.775Z,13.23
2023-04-13T23:22:25.495Z,16.40
2023-04-13T23:24:53.231Z,13.55
2023-04-13T23:27:19.978Z,14.13
2023-04-13T23:29:49.980Z,10.55
2023-04-13T23:32:16.633Z,9.73
2023-04-13T23:34:43.657Z,10.57
2023-04-13T23:37:10.670Z,10.52
2023-04-13T23:39:38.019Z,10.60
2023-04-13T23:42:05.013Z,12.68
2023-04-13T23:44:31.639Z,14.38
2023-04-13T23:46:58.305Z,9.95
2023-04-13T23:49:25.036Z,9.68
2023-04-13T23:51:51.695Z,8.40
2023-04-13T23:54:18.345Z,9.77
2023-04-13T23:56:45.062Z,8.70
2023-04-13T23:59:12.062Z,8.05
